Time;durP1;ratioP1;P1;durP2;ratioP2;P2;SDS_P1;SDS_P2;PMS_P1;PMS_P2;Temp;Humidity;BMP_temperature;BMP_pressure;BME280_temperature;BME280_humidity;BME280_pressure;Samples;Min_cycle;Max_cycle;Signal;HPM_P1;HPM_P2
2021/01/08 00:00:18;;;;;;;24.55;15.93;;;2.00;84.60;;;;;;5020109;28;20061;-64
2021/01/08 00:02:43;;;;;;;22.63;15.20;;;2.00;84.70;;;;;;5011308;28;20029;-64
2021/01/08 00:05:10;;;;;;;23.45;15.27;;;2.10;84.40;;;;;;5016953;28;20480;-65
2021/01/08 00:07:36;;;;;;;22.95;14.82;;;2.10;84.50;;;;;;5022093;28;20048;-64
2021/01/08 00:10:04;;;;;;;25.27;16.42;;;2.10;84.40;;;;;;5023680;28;20051;-63
2021/01/08 00:12:31;;;;;;;24.65;16.08;;;2.10;84.20;;;;;;5028010;28;20072;-63
2021/01/08 00:14:56;;;;;;;22.23;15.15;;;2.10;84.00;;;;;;4999769;28;20038;-64
2021/01/08 00:17:25;;;;;;;22.02;14.82;;;2.10;84.20;;;;;;5005351;28;20420;-64
2021/01/08 00:19:51;;;;;;;25.30;15.60;;;2.10;84.60;;;;;;5007724;28;20030;-64
2021/01/08 00:22:16;;;;;;;21.10;14.88;;;2.10;84.20;;;;;;5026078;28;20045;-64
2021/01/08 00:24:42;;;;;;;22.02;15.35;;;2.10;84.30;;;;;;5000544;28;20378;-63
2021/01/08 00:27:07;;;;;;;23.80;14.43;;;2.10;84.40;;;;;;5005900;28;20626;-64
2021/01/08 00:29:33;;;;;;;27.50;14.57;;;2.00;84.70;;;;;;5002958;28;20587;-64
2021/01/08 00:31:59;;;;;;;22.65;15.30;;;2.00;84.60;;;;;;5024154;28;20034;-63
2021/01/08 00:34:24;;;;;;;23.48;14.75;;;2.00;85.00;;;;;;5014168;28;20099;-63
2021/01/08 00:36:52;;;;;;;22.70;14.82;;;1.90;85.70;;;;;;5004229;28;20113;-62
2021/01/08 00:39:19;;;;;;;21.73;14.95;;;1.90;85.20;;;;;;5034061;28;20065;-63
2021/01/08 00:41:44;;;;;;;20.15;14.38;;;2.00;85.00;;;;;;5024511;28;20819;-62
2021/01/08 00:44:10;;;;;;;23.73;15.35;;;1.90;85.10;;;;;;5006345;28;20025;-63
2021/01/08 00:46:42;;;;;;;24.38;15.30;;;2.00;85.20;;;;;;5000244;28;20041;-64
2021/01/08 00:49:08;;;;;;;21.67;14.10;;;1.90;85.50;;;;;;5004816;28;20044;-65
2021/01/08 00:51:35;;;;;;;20.88;13.50;;;1.90;85.20;;;;;;5022516;28;20045;-64
2021/01/08 00:54:02;;;;;;;23.40;15.63;;;2.00;85.30;;;;;;5008839;28;20061;-64
2021/01/08 00:56:27;;;;;;;22.50;14.63;;;1.90;85.30;;;;;;5025674;28;20041;-63
2021/01/08 00:58:53;;;;;;;24.92;14.75;;;1.90;85.40;;;;;;5015059;28;20061;-64
2021/01/08 01:01:20;;;;;;;23.20;14.35;;;2.00;85.30;;;;;;5008318;28;20037;-60
2021/01/08 01:03:46;;;;;;;22.80;14.68;;;2.00;85.10;;;;;;4988808;28;20041;-60
2021/01/08 01:06:11;;;;;;;22.20;14.55;;;2.00;85.20;;;;;;4978241;28;20058;-58
2021/01/08 01:08:37;;;;;;;22.45;14.30;;;2.00;85.00;;;;;;4990745;28;20456;-59
2021/01/08 01:11:03;;;;;;;20.90;14.00;;;2.00;85.10;;;;;;5014547;28;20509;-59
2021/01/08 01:13:29;;;;;;;22.20;14.07;;;2.00;85.10;;;;;;5019445;28;20034;-61
2021/01/08 01:15:55;;;;;;;23.30;14.57;;;2.10;84.80;;;;;;5027174;28;20048;-60
2021/01/08 01:18:21;;;;;;;21.05;14.15;;;2.00;85.20;;;;;;5018018;28;20520;-59
2021/01/08 01:20:47;;;;;;;22.17;15.10;;;2.00;84.90;;;;;;4998666;28;20045;-59
2021/01/08 01:23:13;;;;;;;24.25;15.32;;;2.00;85.30;;;;;;4997119;28;20036;-58
2021/01/08 01:25:38;;;;;;;22.65;15.45;;;1.90;85.70;;;;;;5029111;28;20029;-60
2021/01/08 01:28:04;;;;;;;23.05;15.40;;;2.00;85.40;;;;;;5011563;28;20053;-59
2021/01/08 01:30:31;;;;;;;19.73;13.10;;;2.10;85.10;;;;;;5004399;28;20069;-59
2021/01/08 01:33:00;;;;;;;22.98;14.30;;;2.10;85.90;;;;;;5028481;28;20049;-57
2021/01/08 01:35:26;;;;;;;19.67;13.90;;;2.10;85.00;;;;;;4980316;28;20492;-59
2021/01/08 01:37:52;;;;;;;23.77;14.82;;;2.20;86.10;;;;;;5014912;28;20037;-58
2021/01/08 01:40:21;;;;;;;20.92;14.60;;;2.30;84.60;;;;;;5022732;28;20045;-58
2021/01/08 01:42:47;;;;;;;20.60;13.60;;;2.30;84.20;;;;;;5013942;28;20437;-60
2021/01/08 01:45:13;;;;;;;20.77;14.02;;;2.30;84.20;;;;;;5029790;28;20073;-61
2021/01/08 01:47:39;;;;;;;19.58;13.88;;;2.20;84.40;;;;;;5021501;28;20037;-61
2021/01/08 01:50:06;;;;;;;22.75;14.38;;;2.10;85.10;;;;;;5024952;28;20152;-59
2021/01/08 01:52:32;;;;;;;23.65;14.13;;;2.00;85.40;;;;;;5020713;28;20041;-59
2021/01/08 01:54:58;;;;;;;22.05;14.48;;;2.00;86.00;;;;;;5016617;28;20053;-61
2021/01/08 01:57:23;;;;;;;21.83;14.50;;;2.10;85.50;;;;;;5004316;28;20049;-63
2021/01/08 01:59:49;;;;;;;21.25;14.30;;;2.10;85.10;;;;;;4981151;28;20093;-62
2021/01/08 02:02:21;;;;;;;21.35;14.60;;;2.10;85.30;;;;;;4977731;28;20042;-62
2021/01/08 02:04:48;;;;;;;21.73;14.70;;;2.10;85.30;;;;;;5006844;28;20038;-61
2021/01/08 02:07:14;;;;;;;22.92;15.05;;;2.00;85.90;;;;;;4995577;28;20445;-61
2021/01/08 02:09:41;;;;;;;20.23;14.07;;;2.00;85.90;;;;;;5000412;28;20104;-58
2021/01/08 02:12:07;;;;;;;23.73;15.38;;;2.00;86.30;;;;;;5014969;28;20037;-60
2021/01/08 02:14:35;;;;;;;21.27;14.45;;;2.00;86.20;;;;;;4992182;28;20116;-63
2021/01/08 02:17:01;;;;;;;22.38;15.45;;;2.00;86.20;;;;;;4997650;28;20069;-59
2021/01/08 02:19:50;;;;;;;25.02;15.00;;;2.10;85.70;;;;;;5014046;28;20480;-60
2021/01/08 02:22:43;;;;;;;24.13;15.00;;;2.10;85.90;;;;;;5014858;28;20046;-62
2021/01/08 02:25:21;;;;;;;24.60;15.82;;;2.10;86.00;;;;;;5013849;28;20041;-62
2021/01/08 02:28:05;;;;;;;22.00;15.15;;;2.00;86.40;;;;;;5014691;28;20172;-62
2021/01/08 02:30:32;;;;;;;23.33;15.43;;;2.00;86.80;;;;;;5013709;28;20030;-62
2021/01/08 02:32:58;;;;;;;23.98;15.90;;;2.00;86.60;;;;;;5013865;28;20046;-62
2021/01/08 02:35:24;;;;;;;20.50;14.85;;;2.00;86.80;;;;;;5013520;28;20065;-61
2021/01/08 02:37:50;;;;;;;24.42;15.07;;;2.00;86.90;;;;;;4997326;28;20108;-61
2021/01/08 02:40:17;;;;;;;26.17;16.23;;;1.90;87.00;;;;;;5013300;28;20123;-60
2021/01/08 02:42:46;;;;;;;22.30;15.60;;;2.00;86.80;;;;;;5014560;28;20080;-61
2021/01/08 02:45:13;;;;;;;23.45;15.20;;;2.00;86.80;;;;;;4995533;28;20488;-63
2021/01/08 02:47:39;;;;;;;24.15;16.02;;;2.00;86.70;;;;;;5014289;28;20132;-61
2021/01/08 02:50:05;;;;;;;25.17;16.45;;;2.00;86.70;;;;;;5013579;28;20130;-62
2021/01/08 02:52:33;;;;;;;23.50;16.52;;;2.00;86.60;;;;;;5014252;28;20073;-61
2021/01/08 02:55:02;;;;;;;22.70;16.15;;;2.10;86.50;;;;;;5013397;28;20066;-59
2021/01/08 02:57:28;;;;;;;22.42;16.20;;;2.00;86.80;;;;;;5013808;28;20149;-61
2021/01/08 02:59:56;;;;;;;23.42;15.80;;;2.00;86.80;;;;;;5013481;28;20044;-61
2021/01/08 03:02:24;;;;;;;23.15;15.73;;;2.00;86.80;;;;;;4980385;28;20088;-62
2021/01/08 03:04:49;;;;;;;23.27;16.20;;;2.00;86.80;;;;;;5011933;28;20042;-62
2021/01/08 03:07:23;;;;;;;23.70;15.15;;;2.00;87.00;;;;;;5013489;28;20041;-61
2021/01/08 03:09:49;;;;;;;23.67;16.17;;;2.00;86.90;;;;;;5012953;28;20049;-61
2021/01/08 03:12:15;;;;;;;20.90;14.82;;;2.00;87.00;;;;;;5013526;28;20030;-61
2021/01/08 03:14:50;;;;;;;22.08;15.38;;;2.00;87.00;;;;;;5013375;28;20113;-62
2021/01/08 03:17:16;;;;;;;;;;;2.00;87.60;;;;;;5013620;28;20046;-59
2021/01/08 03:19:41;;;;;;;23.33;15.32;;;2.00;87.40;;;;;;5013703;28;19931;-62
2021/01/08 03:22:07;;;;;;;23.10;15.98;;;2.10;87.20;;;;;;4975620;28;20051;-61
2021/01/08 03:24:32;;;;;;;23.25;15.32;;;2.10;87.00;;;;;;4993702;28;20389;-61
2021/01/08 03:26:58;;;;;;;22.05;15.15;;;2.10;87.00;;;;;;5009474;28;20045;-60
2021/01/08 03:29:24;;;;;;;26.23;16.20;;;2.20;86.90;;;;;;5012991;28;20700;-60
2021/01/08 03:31:49;;;;;;;22.95;16.30;;;2.20;86.50;;;;;;5012944;28;20042;-61
2021/01/08 03:34:15;;;;;;;22.40;16.27;;;2.20;86.50;;;;;;5012607;28;20120;-61
2021/01/08 03:36:41;;;;;;;23.83;15.65;;;2.30;86.50;;;;;;5012707;28;20504;-60
2021/01/08 03:39:06;;;;;;;24.60;15.52;;;2.20;87.10;;;;;;5013618;28;20059;-60
2021/01/08 03:41:32;;;;;;;22.65;15.63;;;2.10;87.30;;;;;;5013128;28;20061;-59
2021/01/08 03:43:58;;;;;;;24.77;15.90;;;2.20;87.10;;;;;;5012922;28;20030;-59
2021/01/08 03:46:24;;;;;;;24.63;16.48;;;2.10;87.40;;;;;;4995538;28;20045;-61
2021/01/08 03:48:50;;;;;;;24.77;16.92;;;2.10;87.80;;;;;;5012393;28;20034;-61
2021/01/08 03:51:15;;;;;;;24.73;16.05;;;2.00;88.20;;;;;;5011905;28;20408;-61
2021/01/08 03:53:41;;;;;;;23.73;16.75;;;2.00;88.00;;;;;;5013063;28;20037;-61
2021/01/08 03:56:06;;;;;;;27.42;17.70;;;2.10;87.80;;;;;;5011455;28;20052;-60
2021/01/08 03:58:32;;;;;;;22.55;15.35;;;2.20;87.80;;;;;;5013138;28;20129;-61
2021/01/08 04:00:57;;;;;;;24.92;17.45;;;2.20;87.50;;;;;;5012196;28;20049;-62
2021/01/08 04:03:23;;;;;;;26.48;17.15;;;2.20;87.40;;;;;;5013331;28;20045;-62
2021/01/08 04:05:49;;;;;;;25.88;17.50;;;2.10;88.20;;;;;;5003312;28;20405;-61
2021/01/08 04:08:14;;;;;;;26.35;17.45;;;2.10;87.90;;;;;;5011665;28;20077;-62
2021/01/08 04:10:40;;;;;;;23.27;16.65;;;2.10;88.50;;;;;;5011433;28;20050;-63
2021/01/08 04:13:05;;;;;;;26.65;17.38;;;2.10;88.20;;;;;;5009964;28;20053;-61
2021/01/08 04:15:31;;;;;;;26.65;17.50;;;2.10;88.60;;;;;;5012280;28;20041;-61
2021/01/08 04:17:57;;;;;;;25.23;17.85;;;2.00;89.20;;;;;;4993512;28;20041;-62
2021/01/08 04:20:22;;;;;;;25.85;18.73;;;2.10;88.30;;;;;;4981770;28;20091;-61
2021/01/08 04:22:48;;;;;;;29.70;18.92;;;2.10;88.60;;;;;;5007848;28;20038;-60
2021/01/08 04:25:13;;;;;;;25.23;17.58;;;2.10;89.10;;;;;;4994902;28;20057;-60
2021/01/08 04:27:39;;;;;;;27.42;17.73;;;2.10;89.00;;;;;;4985683;28;20034;-60
2021/01/08 04:30:06;;;;;;;27.33;17.92;;;2.10;88.90;;;;;;4992064;28;20035;-62
2021/01/08 04:32:31;;;;;;;26.65;18.38;;;2.10;89.20;;;;;;5003981;28;20049;-61
2021/01/08 04:34:57;;;;;;;30.38;19.50;;;2.10;89.50;;;;;;5011067;28;20034;-61
2021/01/08 04:37:24;;;;;;;28.77;18.60;;;2.00;90.00;;;;;;4992272;28;20489;-62
2021/01/08 04:39:49;;;;;;;30.20;19.65;;;1.90;90.30;;;;;;4995057;28;20091;-61
2021/01/08 04:42:15;;;;;;;25.63;17.70;;;2.00;90.00;;;;;;5012054;28;20034;-60
2021/01/08 04:44:42;;;;;;;27.48;19.17;;;2.00;90.20;;;;;;5003448;28;20581;-61
2021/01/08 04:47:11;;;;;;;28.17;19.55;;;1.90;90.20;;;;;;5011984;28;20026;-61
2021/01/08 04:49:38;;;;;;;31.33;21.27;;;1.90;90.20;;;;;;5009998;28;20022;-62
2021/01/08 04:52:06;;;;;;;29.05;19.63;;;2.00;90.10;;;;;;5010193;28;20080;-62
2021/01/08 04:54:32;;;;;;;30.33;20.50;;;1.90;90.30;;;;;;5011226;28;20057;-60
2021/01/08 04:56:58;;;;;;;29.25;19.40;;;2.00;90.00;;;;;;5011321;28;20066;-61
2021/01/08 04:59:25;;;;;;;29.27;20.35;;;2.10;90.00;;;;;;5011548;28;20038;-61
2021/01/08 05:01:51;;;;;;;29.60;19.83;;;2.10;89.70;;;;;;5011540;28;20046;-60
2021/01/08 05:04:17;;;;;;;26.08;17.83;;;2.00;89.80;;;;;;5011427;28;20393;-60
2021/01/08 05:06:44;;;;;;;26.60;18.83;;;2.10;90.10;;;;;;5012288;28;20048;-59
2021/01/08 05:09:09;;;;;;;25.65;18.75;;;2.10;89.80;;;;;;5011385;28;20029;-62
2021/01/08 05:11:35;;;;;;;27.42;18.83;;;2.00;90.20;;;;;;5011859;28;20054;-60
2021/01/08 05:14:02;;;;;;;29.23;19.88;;;2.00;90.10;;;;;;5011686;28;20049;-57
2021/01/08 05:16:30;;;;;;;27.02;18.63;;;2.00;90.20;;;;;;5012003;28;20046;-61
2021/01/08 05:18:57;;;;;;;29.23;19.95;;;2.00;90.30;;;;;;5011719;28;20041;-60
2021/01/08 05:21:25;;;;;;;26.45;18.23;;;2.00;90.40;;;;;;5011989;28;20030;-61
2021/01/08 05:23:54;;;;;;;25.70;17.77;;;2.00;90.40;;;;;;4993937;28;20037;-60
2021/01/08 05:26:21;;;;;;;28.80;20.13;;;2.00;90.30;;;;;;5012561;28;20092;-60
2021/01/08 05:29:00;;;;;;;26.33;19.08;;;2.10;90.00;;;;;;4994257;28;20407;-61
2021/01/08 05:31:32;;;;;;;25.35;18.33;;;2.10;90.00;;;;;;4994637;28;20567;-61
2021/01/08 05:33:57;;;;;;;28.27;19.77;;;2.00;90.20;;;;;;5011992;28;20057;-60
2021/01/08 05:36:25;;;;;;;28.45;20.50;;;2.10;90.20;;;;;;5011868;28;20037;-60
2021/01/08 05:38:53;;;;;;;26.55;18.02;;;2.00;90.40;;;;;;5011782;28;20038;-62
2021/01/08 05:41:21;;;;;;;27.92;19.25;;;2.00;90.30;;;;;;5011444;28;20046;-61
2021/01/08 05:43:47;;;;;;;29.90;19.70;;;2.10;90.20;;;;;;4993720;28;20065;-61
2021/01/08 05:46:16;;;;;;;26.73;19.02;;;2.10;90.20;;;;;;4993973;28;20089;-60
2021/01/08 05:48:52;;;;;;;27.20;18.52;;;2.00;90.40;;;;;;4985399;28;20104;-60
2021/01/08 05:51:19;;;;;;;30.08;19.73;;;1.80;90.80;;;;;;4990936;28;20121;-60
2021/01/08 05:53:51;;;;;;;27.92;19.48;;;1.80;91.00;;;;;;4992010;28;20109;-60
2021/01/08 05:56:20;;;;;;;29.92;20.00;;;1.70;91.00;;;;;;4994211;28;20485;-60
2021/01/08 05:58:47;;;;;;;31.23;20.02;;;1.70;91.10;;;;;;5001174;28;20068;-59
2021/01/08 06:01:13;;;;;;;30.83;20.85;;;1.70;91.20;;;;;;5011175;28;20036;-60
2021/01/08 06:03:40;;;;;;;28.42;19.63;;;1.80;91.00;;;;;;5011225;28;20753;-59
2021/01/08 06:06:07;;;;;;;31.98;21.02;;;1.80;90.90;;;;;;5010760;28;20088;-61
2021/01/08 06:08:50;;;;;;;31.45;20.75;;;1.80;91.10;;;;;;5011478;28;20038;-61
2021/01/08 06:11:28;;;;;;;29.75;19.63;;;1.70;91.20;;;;;;5011287;28;20046;-60
2021/01/08 06:13:56;;;;;;;28.42;19.10;;;1.80;91.00;;;;;;4995820;28;20044;-60
2021/01/08 06:16:22;;;;;;;31.23;20.77;;;1.80;91.20;;;;;;5011338;28;20046;-59
2021/01/08 06:18:54;;;;;;;29.52;19.48;;;1.90;90.80;;;;;;5011250;28;20145;-60
2021/01/08 06:21:34;;;;;;;31.20;19.95;;;1.80;90.90;;;;;;5011945;28;20457;-59
2021/01/08 06:24:00;;;;;;;29.67;20.42;;;1.70;91.20;;;;;;5014821;28;20037;-60
2021/01/08 06:26:27;;;;;;;28.10;19.20;;;1.80;91.10;;;;;;4997434;28;20037;-61
2021/01/08 06:29:00;;;;;;;30.52;20.02;;;1.90;91.10;;;;;;4997820;28;20038;-60
2021/01/08 06:31:45;;;;;;;28.23;19.05;;;1.90;90.90;;;;;;5014675;28;20119;-60
2021/01/08 06:34:11;;;;;;;30.40;21.25;;;1.90;90.90;;;;;;4994995;28;20038;-59
2021/01/08 06:36:45;;;;;;;30.02;20.42;;;1.80;91.10;;;;;;4996383;28;20112;-60
2021/01/08 06:39:19;;;;;;;30.05;19.45;;;1.70;91.30;;;;;;5014685;28;20433;-60
2021/01/08 06:41:52;;;;;;;28.65;19.10;;;1.80;91.20;;;;;;5014264;28;20080;-58
2021/01/08 06:44:24;;;;;;;30.10;19.98;;;1.80;91.00;;;;;;5014103;28;20030;-60
2021/01/08 06:46:52;;;;;;;29.08;20.40;;;1.80;91.20;;;;;;5014504;28;20048;-61
2021/01/08 06:49:19;;;;;;;29.50;19.98;;;1.70;91.40;;;;;;5014344;28;20169;-60
2021/01/08 06:51:45;;;;;;;31.23;20.67;;;1.70;91.50;;;;;;5014745;28;20042;-60
2021/01/08 06:54:12;;;;;;;29.17;19.90;;;1.70;91.50;;;;;;4996066;28;20026;-59
2021/01/08 06:56:45;;;;;;;30.10;20.27;;;1.70;91.50;;;;;;5014249;28;20116;-62
2021/01/08 06:59:16;;;;;;;33.00;21.40;;;1.70;91.50;;;;;;5014446;28;20057;-59
2021/01/08 07:01:52;;;;;;;32.45;21.35;;;1.70;91.60;;;;;;5014403;28;20072;-59
2021/01/08 07:04:26;;;;;;;31.67;20.35;;;1.70;91.70;;;;;;5013694;28;20476;-59
2021/01/08 07:06:58;;;;;;;31.10;20.27;;;1.60;91.80;;;;;;5014283;28;20092;-60
2021/01/08 07:09:33;;;;;;;29.27;19.27;;;1.70;91.60;;;;;;4996547;28;20038;-61
2021/01/08 07:12:00;;;;;;;27.40;19.33;;;1.80;91.30;;;;;;5003415;28;20037;-60
2021/01/08 07:14:26;;;;;;;30.95;20.90;;;1.90;91.30;;;;;;5013461;28;20037;-60
2021/01/08 07:16:53;;;;;;;28.88;20.08;;;2.00;90.90;;;;;;4980419;28;20048;-59
2021/01/08 07:19:21;;;;;;;30.27;20.27;;;1.80;91.20;;;;;;5013945;28;20485;-60
2021/01/08 07:21:52;;;;;;;30.98;19.52;;;1.80;91.40;;;;;;4977631;28;20038;-61
2021/01/08 07:24:27;;;;;;;30.70;20.42;;;1.80;91.40;;;;;;5014408;28;20477;-60
2021/01/08 07:26:53;;;;;;;30.45;20.30;;;1.80;91.50;;;;;;4996783;28;20423;-60
2021/01/08 07:29:28;;;;;;;31.17;21.10;;;1.90;91.20;;;;;;4997366;28;20042;-59
2021/01/08 07:31:56;;;;;;;;;;;1.80;91.50;;;;;;5013957;28;20042;-60
2021/01/08 07:34:35;;;;;;;27.73;18.77;;;2.00;91.30;;;;;;5013674;28;20001;-59
2021/01/08 07:37:02;;;;;;;28.60;19.52;;;2.00;91.00;;;;;;5013299;28;20063;-61
2021/01/08 07:39:41;;;;;;;29.60;20.92;;;1.90;91.30;;;;;;5013436;28;20121;-62
2021/01/08 07:42:30;;;;;;;27.40;19.35;;;2.00;90.90;;;;;;4995915;28;20539;-61
2021/01/08 07:44:55;;;;;;;31.50;20.65;;;2.00;90.80;;;;;;4995459;28;20034;-60
2021/01/08 07:47:37;;;;;;;36.05;20.00;;;1.90;91.10;;;;;;5013680;28;20553;-60
2021/01/08 07:50:17;;;;;;;30.00;19.38;;;1.90;91.50;;;;;;5001187;28;20065;-60
2021/01/08 07:52:46;;;;;;;29.55;20.45;;;1.80;91.40;;;;;;5013185;28;20443;-62
2021/01/08 07:55:33;;;;;;;32.60;21.15;;;1.90;91.20;;;;;;5012782;28;20084;-60
2021/01/08 07:58:03;;;;;;;31.85;20.52;;;1.90;91.30;;;;;;5013076;28;20045;-62
2021/01/08 08:00:31;;;;;;;31.85;20.38;;;1.80;91.50;;;;;;4995135;28;20036;-60
2021/01/08 08:02:58;;;;;;;32.70;21.65;;;1.80;91.30;;;;;;5013052;28;20042;-61
2021/01/08 08:05:25;;;;;;;29.67;20.60;;;1.90;91.30;;;;;;4995848;28;20393;-61
2021/01/08 08:08:02;;;;;;;31.35;21.63;;;1.90;91.20;;;;;;4995566;28;20085;-57
2021/01/08 08:10:30;;;;;;;26.83;18.52;;;1.90;91.30;;;;;;5012386;28;20052;-59
2021/01/08 08:12:57;;;;;;;31.45;20.63;;;2.00;91.00;;;;;;4995370;28;20066;-61
2021/01/08 08:15:23;;;;;;;27.27;20.15;;;2.00;91.10;;;;;;4994945;28;20038;-61
2021/01/08 08:17:49;;;;;;;27.02;18.85;;;2.00;91.20;;;;;;5013035;28;20080;-60
2021/01/08 08:20:23;;;;;;;27.48;20.13;;;2.00;91.10;;;;;;5013038;28;20034;-61
2021/01/08 08:22:50;;;;;;;27.25;18.92;;;2.00;91.30;;;;;;5004143;28;20096;-62
2021/01/08 08:25:42;;;;;;;26.38;19.13;;;2.10;91.00;;;;;;5012604;28;20045;-59
2021/01/08 08:28:08;;;;;;;29.75;19.52;;;2.10;90.80;;;;;;5008902;28;20121;-60
2021/01/08 08:30:34;;;;;;;26.75;19.58;;;2.00;91.10;;;;;;5012291;28;20168;-60
2021/01/08 08:33:00;;;;;;;28.58;20.25;;;2.00;91.30;;;;;;4995281;28;20532;-60
2021/01/08 08:35:35;;;;;;;27.48;19.08;;;2.00;91.30;;;;;;5012142;28;20030;-59
2021/01/08 08:38:07;;;;;;;30.90;19.35;;;2.10;91.00;;;;;;5012824;28;20034;-60
2021/01/08 08:40:32;;;;;;;28.30;19.98;;;2.00;91.00;;;;;;5012400;28;20038;-60
2021/01/08 08:43:00;;;;;;;28.85;19.73;;;1.90;91.20;;;;;;5011895;28;20112;-60
2021/01/08 08:45:31;;;;;;;29.55;19.17;;;2.00;91.20;;;;;;4994242;28;20034;-60
2021/01/08 08:47:58;;;;;;;30.58;20.98;;;2.00;91.20;;;;;;5006910;28;20405;-61
2021/01/08 08:50:25;;;;;;;29.98;20.40;;;2.00;91.10;;;;;;4992734;28;20034;-61
2021/01/08 08:52:51;;;;;;;27.42;19.67;;;2.00;91.20;;;;;;4996696;28;20087;-60
2021/01/08 08:55:24;;;;;;;27.10;19.42;;;2.00;91.10;;;;;;4994243;28;20026;-59
2021/01/08 08:58:00;;;;;;;27.08;19.67;;;2.10;91.00;;;;;;4994625;28;20022;-60
2021/01/08 09:00:27;;;;;;;27.38;18.95;;;2.10;90.90;;;;;;4994921;28;20049;-60
2021/01/08 09:02:52;;;;;;;27.80;19.48;;;2.10;90.90;;;;;;5012522;28;20168;-62
2021/01/08 09:05:18;;;;;;;27.58;19.15;;;2.20;90.90;;;;;;5012122;28;20147;-61
2021/01/08 09:07:56;;;;;;;28.55;20.10;;;2.20;90.80;;;;;;4994910;28;20034;-60
2021/01/08 09:10:23;;;;;;;29.77;18.90;;;2.10;91.00;;;;;;4994816;28;20030;-61
2021/01/08 09:13:04;;;;;;;30.52;19.40;;;2.10;91.00;;;;;;5012273;28;20041;-60
2021/01/08 09:15:31;;;;;;;27.95;19.10;;;2.30;90.70;;;;;;4993704;28;20061;-60
2021/01/08 09:18:22;;;;;;;27.58;19.15;;;2.30;90.60;;;;;;5012121;28;20057;-60
2021/01/08 09:20:56;;;;;;;25.00;17.02;;;2.20;90.70;;;;;;5010597;28;20026;-59
2021/01/08 09:23:22;;;;;;;24.75;18.30;;;2.30;90.40;;;;;;5012200;28;20072;-59
2021/01/08 09:25:48;;;;;;;26.05;19.38;;;2.30;90.40;;;;;;5011333;28;20048;-60
2021/01/08 09:28:17;;;;;;;24.27;17.77;;;2.40;90.50;;;;;;4994786;28;20030;-60
2021/01/08 09:30:50;;;;;;;25.38;18.60;;;2.40;90.20;;;;;;4994747;28;20405;-58
2021/01/08 09:33:16;;;;;;;26.38;19.10;;;2.40;90.20;;;;;;5012069;28;20034;-60
2021/01/08 09:35:45;;;;;;;27.73;18.90;;;2.40;90.20;;;;;;5009545;28;20524;-60
2021/01/08 09:38:14;;;;;;;26.98;18.63;;;2.50;90.30;;;;;;4993815;28;20029;-60
2021/01/08 09:40:42;;;;;;;27.77;19.30;;;2.60;90.00;;;;;;4993704;28;20056;-61
2021/01/08 09:43:16;;;;;;;28.42;19.92;;;2.60;89.90;;;;;;5012755;28;20121;-60
2021/01/08 09:45:42;;;;;;;28.00;18.95;;;2.70;89.70;;;;;;5049221;22;20033;-58
2021/01/08 09:48:23;;;;;;;25.48;18.60;;;2.70;90.00;;;;;;5056885;28;20075;-57
2021/01/08 09:51:05;;;;;;;22.27;16.85;;;2.80;89.60;;;;;;5035271;28;20116;-58
2021/01/08 09:53:34;;;;;;;25.75;18.88;;;2.90;90.30;;;;;;5052084;28;20108;-57
2021/01/08 09:56:16;;;;;;;23.58;18.25;;;2.70;89.80;;;;;;5036850;28;20065;-62
2021/01/08 09:58:43;;;;;;;26.27;19.27;;;2.70;90.00;;;;;;5038297;28;20057;-58
2021/01/08 10:01:12;;;;;;;22.13;17.85;;;2.60;90.00;;;;;;5055152;28;20502;-57
2021/01/08 10:03:38;;;;;;;25.77;18.73;;;2.50;90.20;;;;;;5037434;28;20055;-57
2021/01/08 10:06:11;;;;;;;25.98;18.17;;;2.60;90.10;;;;;;5055231;28;20090;-58
2021/01/08 10:08:38;;;;;;;24.83;18.08;;;2.60;89.90;;;;;;5038373;28;20056;-55
2021/01/08 10:11:07;;;;;;;24.95;19.60;;;2.80;89.30;;;;;;5056416;28;20029;-58
2021/01/08 10:13:34;;;;;;;27.67;17.95;;;2.50;90.20;;;;;;5038118;28;20050;-58
2021/01/08 10:16:08;;;;;;;26.13;19.50;;;2.60;90.10;;;;;;5056365;28;20025;-56
2021/01/08 10:18:37;;;;;;;28.15;20.55;;;2.70;89.90;;;;;;5056227;28;20029;-58
2021/01/08 10:21:07;;;;;;;25.55;19.27;;;2.40;90.60;;;;;;5058669;28;20032;-57
2021/01/08 10:23:46;;;;;;;29.85;19.77;;;2.20;91.20;;;;;;5057780;28;20435;-57
2021/01/08 10:26:14;;;;;;;27.98;19.85;;;2.40;90.90;;;;;;5037061;28;20061;-59
2021/01/08 10:28:50;;;;;;;26.67;19.25;;;2.50;90.90;;;;;;5052493;28;20045;-58
2021/01/08 10:31:17;;;;;;;27.88;19.95;;;2.50;90.70;;;;;;5056596;28;20075;-56
2021/01/08 10:33:43;;;;;;;26.95;19.00;;;2.60;90.40;;;;;;5056735;28;20491;-57
2021/01/08 10:36:10;;;;;;;25.58;18.75;;;2.60;90.30;;;;;;5057388;28;20395;-58
2021/01/08 10:38:36;;;;;;;27.35;19.83;;;2.90;89.50;;;;;;5056614;28;20090;-56
2021/01/08 10:41:01;;;;;;;26.50;18.67;;;3.10;89.30;;;;;;5020406;28;20036;-56
2021/01/08 10:43:31;;;;;;;24.83;18.42;;;2.90;88.90;;;;;;5054563;28;20040;-60
2021/01/08 10:45:56;;;;;;;24.85;17.55;;;3.10;88.50;;;;;;5037268;28;20048;-55
2021/01/08 10:48:22;;;;;;;24.63;18.30;;;3.40;87.00;;;;;;5020559;28;20025;-59
2021/01/08 10:50:47;;;;;;;22.30;16.98;;;3.30;87.10;;;;;;5035334;28;20045;-55
2021/01/08 10:53:13;;;;;;;26.38;19.17;;;3.40;87.70;;;;;;5036490;28;20517;-55
2021/01/08 10:55:39;;;;;;;23.65;19.10;;;3.10;87.80;;;;;;5035148;28;20041;-55
2021/01/08 10:58:04;;;;;;;26.08;18.35;;;3.20;87.20;;;;;;5055086;28;20098;-55
2021/01/08 11:00:30;;;;;;;24.55;18.65;;;3.30;87.20;;;;;;5053912;28;20073;-56
2021/01/08 11:02:55;;;;;;;26.75;19.17;;;3.00;88.20;;;;;;5055241;28;20488;-56
2021/01/08 11:05:21;;;;;;;25.90;19.50;;;3.10;88.50;;;;;;5036253;28;20048;-56
2021/01/08 11:07:47;;;;;;;25.65;18.20;;;3.20;87.90;;;;;;5055101;28;20029;-56
2021/01/08 11:10:14;;;;;;;22.23;17.20;;;3.20;87.80;;;;;;5055224;28;20108;-57
2021/01/08 11:12:39;;;;;;;23.63;17.70;;;3.20;87.80;;;;;;5055384;28;20132;-56
2021/01/08 11:15:06;;;;;;;24.13;17.60;;;3.40;86.90;;;;;;5054808;28;20547;-54
2021/01/08 11:17:32;;;;;;;22.98;17.95;;;3.10;87.90;;;;;;5054355;28;20492;-55
2021/01/08 11:19:57;;;;;;;26.30;19.30;;;3.10;88.10;;;;;;5054959;28;20041;-57
2021/01/08 11:22:29;;;;;;;24.20;17.40;;;3.30;86.90;;;;;;5054589;28;20033;-56
2021/01/08 11:24:55;;;;;;;25.02;17.95;;;3.50;86.30;;;;;;5036334;28;20055;-52
2021/01/08 11:27:21;;;;;;;25.27;18.75;;;3.30;86.50;;;;;;5036663;28;20119;-56
2021/01/08 11:29:49;;;;;;;26.27;18.55;;;3.20;86.90;;;;;;5054397;28;20120;-57
2021/01/08 11:32:15;;;;;;;23.85;17.50;;;3.00;87.20;;;;;;5024939;28;20037;-57
2021/01/08 11:34:40;;;;;;;22.60;16.65;;;3.20;86.40;;;;;;5055454;28;20044;-56
2021/01/08 11:37:07;;;;;;;21.42;16.63;;;3.40;85.30;;;;;;5038722;28;20028;-58
2021/01/08 11:39:33;;;;;;;22.95;16.38;;;3.40;84.70;;;;;;5020405;28;20029;-58
2021/01/08 11:41:59;;;;;;;23.98;17.02;;;3.50;85.00;;;;;;5036316;28;20387;-57
2021/01/08 11:44:25;;;;;;;21.45;16.00;;;3.40;84.90;;;;;;5058075;28;20033;-56
2021/01/08 11:46:51;;;;;;;22.58;17.13;;;3.60;84.90;;;;;;5036303;28;20033;-59
2021/01/08 11:49:18;;;;;;;22.38;15.35;;;3.50;85.20;;;;;;5056459;28;20075;-59
2021/01/08 11:51:47;;;;;;;22.60;17.73;;;3.50;84.40;;;;;;5055381;28;20021;-56
2021/01/08 11:54:15;;;;;;;23.00;16.58;;;3.50;84.10;;;;;;5053624;28;20036;-56
2021/01/08 11:56:41;;;;;;;21.58;16.67;;;3.50;84.90;;;;;;5052986;28;20047;-56
2021/01/08 11:59:06;;;;;;;21.40;16.50;;;3.50;84.60;;;;;;5053561;28;20356;-57
2021/01/08 12:01:32;;;;;;;21.15;15.63;;;3.50;85.30;;;;;;5035558;28;20150;-56
2021/01/08 12:03:59;;;;;;;20.45;16.20;;;3.50;85.00;;;;;;5054277;28;20170;-59
2021/01/08 12:06:29;;;;;;;21.95;15.52;;;3.30;85.00;;;;;;5027953;28;20033;-57
2021/01/08 12:08:56;;;;;;;23.75;16.70;;;3.30;85.50;;;;;;5048206;28;20096;-55
2021/01/08 12:11:26;;;;;;;21.98;15.90;;;3.40;84.60;;;;;;5047485;28;20032;-58
2021/01/08 12:13:52;;;;;;;22.20;14.70;;;3.50;84.10;;;;;;5042291;28;20060;-56
2021/01/08 12:16:24;;;;;;;22.15;15.40;;;3.60;83.00;;;;;;5018150;28;20123;-58
2021/01/08 12:18:50;;;;;;;21.13;15.25;;;3.60;84.60;;;;;;5044495;28;20053;-58
2021/01/08 12:21:16;;;;;;;22.17;15.57;;;3.60;84.60;;;;;;5035487;28;20040;-56
2021/01/08 12:23:42;;;;;;;21.67;16.83;;;3.80;83.00;;;;;;5025074;28;20036;-62
2021/01/08 12:26:13;;;;;;;27.35;17.13;;;3.70;84.20;;;;;;5022865;28;20029;-58
2021/01/08 12:28:39;;;;;;;21.88;15.85;;;3.60;85.40;;;;;;5023316;28;20037;-60
2021/01/08 12:31:04;;;;;;;22.60;16.63;;;3.60;84.00;;;;;;5029208;28;20055;-56
2021/01/08 12:33:30;;;;;;;23.08;16.73;;;3.30;85.00;;;;;;5024831;28;20042;-57
2021/01/08 12:35:56;;;;;;;22.52;16.67;;;3.30;85.60;;;;;;5046935;28;20139;-59
2021/01/08 12:38:22;;;;;;;23.58;18.02;;;3.50;84.90;;;;;;5043888;28;20033;-53
2021/01/08 12:40:47;;;;;;;25.00;18.20;;;3.70;84.30;;;;;;5045799;28;20075;-58
2021/01/08 12:43:13;;;;;;;23.83;17.70;;;3.80;83.90;;;;;;5042110;28;20017;-58